METAR Data
IDs: Format: Raw Decoded Include TAF

Data at: 0851 UTC 26 Jan 2020

KOSH 260842Z AUTO 28006KT 3SM -SN BR BKN007 BKN013 OVC020 01/01 A2984 RMK AO2 SNB09 P0000 T00060006 $
KOSH 260834Z AUTO 28005KT 3SM -SN BR SCT007 OVC012 01/01 A2984 RMK AO2 SNB09 P0000 T00060006 $
KOSH 260825Z AUTO 29007KT 3SM -SN BR OVC009 01/01 A2984 RMK AO2 SNB09 CIG 004V014 P0000 T00060006 $
KOSH 260753Z AUTO 28006KT 8SM OVC013 01/01 A2984 RMK AO2 SLP116 T00060006 $
KOSH 260736Z AUTO 28006KT 9SM FEW009 OVC013 01/01 A2984 RMK AO2 T00110011 $
KOSH 260721Z AUTO 28006KT 10SM BKN015 OVC037 01/01 A2984 RMK AO2 T00110011 $
KOSH 260705Z AUTO 28007KT 10SM SCT008 SCT016 OVC040 01/01 A2983 RMK AO2 T00110011 $
KOSH 260700Z AUTO 28007KT 10SM SCT008 BKN013 OVC042 01/01 A2983 RMK AO2 T00110011 $
KOSH 260653Z AUTO 28005KT 10SM BKN008 BKN013 OVC042 01/01 A2983 RMK AO2 CIG 006V011 SLP114 T00110011 $
KOSH 260648Z AUTO 28005KT 10SM BKN009 BKN013 OVC019 01/01 A2983 RMK AO2 $
KOSH 260638Z AUTO 28006KT 10SM SCT009 BKN013 OVC039 01/01 A2983 RMK AO2 T00110011 $
KOSH 260630Z AUTO 28006KT 10SM FEW013 BKN019 OVC050 01/01 A2983 RMK AO2 T00110011 $
KOSH 260601Z AUTO 29008KT 10SM SCT010 OVC036 01/01 A2983 RMK AO2 T00110011 $
KOSH 260553Z AUTO 29008KT 10SM SCT010 BKN025 OVC034 01/01 A2983 RMK AO2 SLP113 T00110011 10011 20006 400110000 51003
KOSH 260516Z AUTO 27005KT 10SM BKN012 BKN018 OVC024 01/00 A2984 RMK AO2 T00110000
KOSH 260504Z AUTO 27005KT 10SM SCT010 BKN016 OVC023 01/00 A2983 RMK AO2 T00110000
KOSH 260453Z AUTO 28005KT 10SM BKN012 OVC020 01/00 A2983 RMK AO2 SLP113 T00110000
KOSH 260443Z AUTO 28005KT 10SM BKN010 BKN015 OVC027 01/00 A2983 RMK AO2 T00110000
KOSH 260353Z 29007KT 10SM BKN023 OVC085 01/00 A2983 RMK AO2 SLP112 T00110000
KOSH 260311Z 29007KT 10SM FEW013 SCT018 OVC050 01/00 A2982 RMK AO2 T00110000
KOSH 260303Z 29006KT 10SM SCT013 BKN018 OVC049 01/00 A2982 RMK AO2 T00110000
KOSH 260253Z 28005KT 10SM BKN014 OVC020 01/00 A2982 RMK AO2 SLP111 T00110000 54000
KOSH 260240Z 29007KT 10SM SCT010 OVC014 01/00 A2982 RMK AO2 T00110000
KOSH 260226Z 28005KT 7SM BKN008 OVC014 01/00 A2982 RMK AO2 CIG 007V013 T00110000
KOSH 260212Z 27005KT 7SM BKN013 OVC019 01/00 A2982 RMK AO2 T00110000
KOSH 260153Z 28006KT 9SM BKN021 OVC030 01/00 A2982 RMK AO2 SLP111 T00110000
KOSH 260149Z 28006KT 10SM SCT017 BKN022 OVC030 01/00 A2982 RMK AO2
KOSH 260053Z 29005KT 9SM FEW016 FEW025 OVC038 01/00 A2982 RMK AO2 SLP111 T00110000
KOSH 260049Z 27005KT 9SM FEW018 SCT025 OVC040 01/00 A2982 RMK AO2
KOSH 252353Z 28004KT 10SM SCT015 OVC023 01/00 A2981 RMK AO2 SLP109 T00110000 10011 20006 53011
KOSH 252253Z 30005KT 10SM OVC017 01/M01 A2980 RMK AO2 SLP103 T00111006
KOSH 252243Z 30005KT 10SM OVC017 01/M01 A2980 RMK AO2 T00111006
KOSH 252225Z 29006KT 10SM OVC014 01/M01 A2980 RMK AO2 T00111006
KOSH 252203Z 30005KT 10SM SCT008 OVC015 01/M01 A2979 RMK AO2 T00111006
KOSH 252153Z 30006KT 10SM BKN008 OVC014 01/M01 A2979 RMK AO2 SLP101 T00111006
KOSH 252053Z 32007KT 10SM OVC008 01/M01 A2978 RMK AO2 SLP098 T00111006 53001
KOSH 251953Z 32008KT 10SM OVC007 01/M01 A2977 RMK AO2 CIG 007V011 SLP093 T00111006
KOSH 251853Z 32006KT 10SM OVC007 01/M01 A2977 RMK AO2 SLP094 T00111011
KOSH 251753Z 32006KT 10SM OVC007 01/M01 A2978 RMK AO2 SLP096 60006 T00061011 10006 20000 50003
KOSH 251653Z 33006KT 10SM OVC008 01/M01 A2979 RMK AO2 CIG 006V010 SLP099 T00061011
KOSH 251553Z 32007KT 9SM OVC007 01/M01 A2977 RMK AO2 SNE30 CIG 005V010 SLP095 P0000 T00061011
KOSH 251522Z 32006KT 3SM -SN BR OVC007 00/M01 A2977 RMK AO2 CIG 006V010 P0000 T00001011
KOSH 251453Z 31007KT 1 3/4SM -SN BR BKN006 OVC010 00/M01 A2977 RMK AO2 SLP093 P0000 60006 T00001006 50007
KOSH 251408Z 33005KT 1 1/4SM R36/6000VP6000FT -SN BR BKN005 OVC020 00/M01 A2977 RMK AO2 P0000 T00001006
KOSH 251353Z 32005KT 1/2SM R36/5000VP6000FT SN FG BKN006 OVC018 00/M01 A2977 RMK AO2 SLP094 P0003 T00001006
KOSH 251343Z 32006KT 1/2SM R36/P6000FT -SN FG BKN005 OVC016 00/M01 A2977 RMK AO2 P0002 T00001006
KOSH 251319Z 33006KT 1/2SM R36/4000V5500FT SN FG SCT006 OVC012 00/M01 A2976 RMK AO2 P0001 T00001006
KOSH 251253Z 32006KT 1 1/2SM -SN BR BKN007 OVC016 00/M01 A2976 RMK AO2 SLP089 P0003 T00001006
KOSH 251221Z 32007KT 1 1/4SM -SN BR BKN005 OVC012 00/M01 A2975 RMK AO2 P0002 T00001006
KOSH 251204Z 32006KT 1SM R36/P6000FT -SN BR SCT005 OVC011 00/M01 A2975 RMK AO2 P0000 T00001006
KOSH 251153Z 32005KT 1SM R36/P6000FT -SN BR BKN005 OVC012 00/M01 A2975 RMK AO2 SLP086 P0004 60015 70031 T00001006 10006 20000 53001
KOSH 251053Z AUTO 33005KT 1 1/2SM -SN BR BKN005 OVC015 00/M01 A2974 RMK AO2 SLP084 P0002 T00001006
KOSH 251022Z AUTO 33006KT 1 3/4SM -SN BR BKN007 OVC010 00/M01 A2974 RMK AO2 P0001 T00001006
KOSH 250953Z AUTO 34006KT 2SM -SN BR OVC007 00/M01 A2974 RMK AO2 SLP083 P0002 T00001006
KOSH 250929Z AUTO 34006KT 2 1/2SM -SN BR OVC005 00/M01 A2974 RMK AO2 P0001 T00001006
KOSH 250901Z AUTO 34006KT 1 3/4SM -SN BR OVC005 00/M01 A2975 RMK AO2 CIG 003V008 P0000 T00001006
KOSH 250853Z AUTO 34007KT 2SM -SN BR OVC004 00/M01 A2975 RMK AO2 CIG 003V008 SLP085 P0004 60007 T00001006 57003
KOSH 250810Z AUTO 34006KT 1SM R36/6000VP6000FT -SN BR OVC004 00/00 A2976 RMK AO2 P0002 T00000000
KOSH 250753Z AUTO 34007KT 1 1/4SM R36/6000VP6000FT -SN BR OVC005 00/M01 A2976 RMK AO2 SLP089 P0002 T00001006
KOSH 250739Z AUTO 34007KT 1 1/4SM -SN BR OVC005 00/M01 A2975 RMK AO2 P0002 T00001006
KOSH 250653Z AUTO 34007KT 1 1/4SM -SN BR OVC004 01/M01 A2976 RMK AO2 SLP088 P0001 T00061006
KOSH 250636Z AUTO 34007KT 1 1/4SM -SN BR OVC004 01/00 A2976 RMK AO2 P0001 T00060000
KOSH 250553Z AUTO 34007KT 2 1/2SM -SN BR OVC004 01/M01 A2977 RMK AO2 SNE29B31 SLP091 P0001 60013 T00061006 10011 20000 400110000 58014
KOSH 250546Z AUTO 35007KT 2 1/2SM -SN BR OVC004 01/00 A2977 RMK AO2 SNE29B31 P0001 T00060000
KOSH 250529Z AUTO 35006KT 3SM BR OVC004 01/00 A2978 RMK AO2 SNE29 P0001 T00060000
KOSH 250501Z AUTO 34007KT 2SM -SN BR OVC004 01/00 A2978 RMK AO2 P0000 T00060000
KOSH 250453Z AUTO 35006KT 1 3/4SM -SN BR OVC004 01/00 A2978 RMK AO2 SLP098 P0001 T00060000
KOSH 250408Z AUTO 36006KT 1 1/2SM -SN BR OVC004 01/00 A2979 RMK AO2 P0000 T00060000
KOSH 250353Z 01006KT 2SM -SN BR OVC004 01/00 A2980 RMK AO2 SLP104 P0001 T00060000
KOSH 250314Z 36007KT 2SM -SN BR OVC004 01/00 A2980 RMK AO2 P0000 T00060000
KOSH 250253Z 01007KT 1 3/4SM -SN BR OVC003 01/00 A2981 RMK AO2 SLP106 P0004 60010 T00060000 56008
KOSH 250209Z 36007KT 1SM R36/6000VP6000FT -SN BR OVC003 00/00 A2981 RMK AO2 P0002 T00000000
KOSH 250200Z 36007KT 3/4SM R36/5500VP6000FT -SN BR OVC003 00/00 A2981 RMK AO2 P0001 T00000000
KOSH 250153Z 36006KT 1SM R36/6000VP6000FT -SN BR OVC003 01/00 A2981 RMK AO2 SLP108 P0004 T00060000
KOSH 250128Z 35007KT 1 1/4SM -SN BR OVC003 01/00 A2981 RMK AO2 P0001 T00060000
KOSH 250110Z 36008KT 2 1/2SM -SN BR OVC003 01/00 A2982 RMK AO2 P0000 T00060000
KOSH 250053Z 01008KT 1 3/4SM -SN BR OVC003 01/00 A2982 RMK AO2 UPE2358SNB2358 SLP111 P0002 T00060000
KOSH 242353Z 02009KT 1 3/4SM UP BR OVC003 01/00 A2983 RMK AO2 UPB00E18B51 SLP115 P0000 60000 T00110000 10011 20011 56005
KOSH 242343Z 03009KT 2 1/2SM BR OVC003 01/01 A2983 RMK AO2 UPB00E18 P0000 T00110006
KOSH 242335Z 03010KT 3SM BR OVC003 01/01 A2983 RMK AO2 UPB00E18 P0000 T00110006
KOSH 242310Z 03010KT 2 1/2SM UP BR OVC002 01/01 A2983 RMK AO2 UPB00 P0000 T00110006
KOSH 242253Z 03010KT 1 1/4SM BR OVC002 01/01 A2983 RMK AO2 SLP115 T00110006
KOSH 242153Z 03012KT 1SM R36/5000V6000FT BR OVC002 01/01 A2984 RMK AO2 SLP115 T00110006
KOSH 242138Z 03011KT 3/4SM R36/4000V4500FT BR OVC002 01/01 A2984 RMK AO2 T00110006
KOSH 242126Z 03010KT 1SM R36/4500V5000FT BR OVC002 01/01 A2985 RMK AO2 T00110006
KOSH 242053Z 03010KT 3/4SM R36/4000V4500FT BR OVC002 01/01 A2985 RMK AO2 SLP119 T00110006 56014